createdAt,value
2023-03-28T00:01:01.618Z,3.36
2023-03-28T00:03:29.738Z,3.44
2023-03-28T00:05:58.014Z,3.63
2023-03-28T00:08:25.032Z,3.58
2023-03-28T00:10:51.807Z,3.52
2023-03-28T00:13:20.020Z,3.48
2023-03-28T00:15:47.032Z,3.34
2023-03-28T00:18:14.461Z,2.73
2023-03-28T00:20:43.677Z,2.82
2023-03-28T00:23:12.283Z,2.92
2023-03-28T00:25:41.868Z,2.96
2023-03-28T00:28:09.322Z,2.94
2023-03-28T00:30:36.169Z,2.75
2023-03-28T00:33:05.317Z,2.81
2023-03-28T00:35:33.174Z,3.08
2023-03-28T00:37:59.947Z,2.88
2023-03-28T00:40:27.001Z,2.85
2023-03-28T00:42:54.497Z,2.83
2023-03-28T00:45:24.107Z,2.76
2023-03-28T00:48:01.830Z,3.10
2023-03-28T00:50:38.141Z,3.22
2023-03-28T00:53:15.643Z,3.20
2023-03-28T00:55:47.447Z,2.81
2023-03-28T00:58:24.840Z,2.76
2023-03-28T01:00:52.189Z,2.96
2023-03-28T01:03:20.262Z,2.71
2023-03-28T01:05:48.029Z,2.60
2023-03-28T01:08:21.996Z,2.49
2023-03-28T01:10:49.876Z,2.69
2023-03-28T01:13:24.859Z,2.70
2023-03-28T01:15:52.134Z,2.66
2023-03-28T01:18:22.916Z,2.85
2023-03-28T01:21:23.738Z,2.79
2023-03-28T01:24:12.653Z,2.93
2023-03-28T01:26:57.456Z,2.84
2023-03-28T01:30:02.427Z,2.92
2023-03-28T01:32:29.105Z,2.95
2023-03-28T01:35:14.513Z,2.98
2023-03-28T01:38:14.575Z,2.95
2023-03-28T01:40:41.393Z,3.01
2023-03-28T01:43:26.949Z,2.93
2023-03-28T01:46:16.868Z,2.85
2023-03-28T01:49:16.344Z,2.94
2023-03-28T01:52:01.251Z,2.67
2023-03-28T01:54:52.434Z,2.59
2023-03-28T01:57:28.148Z,2.70
2023-03-28T02:00:25.009Z,2.79
2023-03-28T02:02:54.631Z,2.84
2023-03-28T02:05:23.742Z,2.59
2023-03-28T02:07:52.195Z,2.73
2023-03-28T02:10:22.929Z,2.68
2023-03-28T02:12:54.475Z,2.68
2023-03-28T02:15:24.208Z,2.65
2023-03-28T02:17:56.780Z,2.48
2023-03-28T02:20:26.696Z,2.49
2023-03-28T02:23:01.483Z,2.59
2023-03-28T02:25:28.467Z,2.57
2023-03-28T02:28:01.314Z,2.51
2023-03-28T02:30:28.693Z,2.37
2023-03-28T02:33:03.655Z,2.19
2023-03-28T02:36:02.846Z,1.96
2023-03-28T02:39:02.337Z,2.03
2023-03-28T02:41:44.491Z,2.27
2023-03-28T02:44:11.266Z,2.31
2023-03-28T02:47:01.300Z,2.26
2023-03-28T02:49:50.364Z,2.17
2023-03-28T02:52:52.380Z,2.16
2023-03-28T02:55:54.695Z,2.16
2023-03-28T02:58:40.357Z,1.64
2023-03-28T03:01:07.485Z,1.89
2023-03-28T03:03:36.765Z,1.93
2023-03-28T03:06:07.172Z,1.84
2023-03-28T03:08:34.146Z,1.77
2023-03-28T03:11:00.967Z,1.69
2023-03-28T03:13:27.847Z,1.54
2023-03-28T03:15:54.749Z,1.37
2023-03-28T03:18:22.227Z,1.26
2023-03-28T03:20:50.408Z,1.48
2023-03-28T03:23:17.179Z,1.18
2023-03-28T03:25:45.426Z,1.44
2023-03-28T03:28:13.232Z,1.54
2023-03-28T03:30:40.196Z,1.53
2023-03-28T03:33:10.686Z,1.13
2023-03-28T03:35:38.343Z,1.26
2023-03-28T03:38:05.131Z,1.33
2023-03-28T03:40:32.113Z,1.61
2023-03-28T03:42:58.879Z,1.33
2023-03-28T03:45:25.847Z,1.31
2023-03-28T03:47:52.801Z,1.40
2023-03-28T03:50:19.985Z,1.74
2023-03-28T03:52:46.835Z,1.66
2023-03-28T03:55:14.608Z,1.68
2023-03-28T03:57:41.739Z,1.93
2023-03-28T04:00:12.263Z,1.93
2023-03-28T04:02:40.102Z,1.85
2023-03-28T04:05:09.325Z,1.99
2023-03-28T04:07:36.643Z,2.16
2023-03-28T04:10:04.451Z,2.28
2023-03-28T04:12:31.531Z,2.07
2023-03-28T04:14:58.254Z,2.24
2023-03-28T04:17:30.138Z,2.31
2023-03-28T04:19:57.105Z,2.58
2023-03-28T04:22:24.210Z,2.84
2023-03-28T04:24:53.547Z,2.63
2023-03-28T04:27:20.299Z,2.64
2023-03-28T04:29:47.015Z,2.43
2023-03-28T04:32:13.845Z,2.88
2023-03-28T04:34:40.599Z,3.08
2023-03-28T04:37:09.371Z,2.82
2023-03-28T04:39:36.193Z,2.89
2023-03-28T04:42:05.563Z,3.20
2023-03-28T04:44:32.445Z,2.97
2023-03-28T04:47:00.020Z,3.30
2023-03-28T04:49:26.930Z,3.18
2023-03-28T04:51:53.716Z,2.90
2023-03-28T04:54:20.950Z,3.27
2023-03-28T04:56:51.032Z,3.20
2023-03-28T04:59:18.119Z,3.30
2023-03-28T05:01:50.852Z,3.48
2023-03-28T05:04:18.914Z,3.34
2023-03-28T05:06:46.495Z,3.59
2023-03-28T05:09:13.595Z,3.45
2023-03-28T05:11:40.953Z,3.68
2023-03-28T05:14:07.756Z,3.77
2023-03-28T05:16:34.555Z,3.57
2023-03-28T05:19:01.810Z,3.75
2023-03-28T05:21:28.967Z,3.91
2023-03-28T05:23:55.717Z,3.86
2023-03-28T05:26:22.637Z,3.79
2023-03-28T05:28:49.774Z,3.66
2023-03-28T05:31:17.507Z,3.77
2023-03-28T05:33:44.315Z,3.58
2023-03-28T05:36:13.084Z,3.96
2023-03-28T05:38:39.913Z,3.60
2023-03-28T05:41:06.966Z,3.71
2023-03-28T05:43:33.657Z,3.74
2023-03-28T05:46:00.542Z,3.67
2023-03-28T05:48:27.335Z,3.85
2023-03-28T05:50:54.130Z,3.93
2023-03-28T05:53:20.852Z,3.71
2023-03-28T05:55:49.573Z,3.91
2023-03-28T05:58:16.378Z,4.01
2023-03-28T06:00:44.945Z,4.21
2023-03-28T06:03:16.498Z,4.15
2023-03-28T06:05:43.978Z,3.96
2023-03-28T06:08:10.975Z,4.14
2023-03-28T06:10:37.813Z,3.79
2023-03-28T06:13:06.067Z,3.94
2023-03-28T06:15:33.403Z,3.94
2023-03-28T06:18:00.148Z,3.89
2023-03-28T06:20:29.455Z,4.01
2023-03-28T06:22:56.212Z,4.10
2023-03-28T06:25:22.902Z,4.22
2023-03-28T06:27:49.574Z,4.22
2023-03-28T06:30:16.264Z,4.29
2023-03-28T06:32:43.054Z,4.03
2023-03-28T06:35:10.020Z,4.14
2023-03-28T06:37:36.712Z,4.08
2023-03-28T06:40:03.859Z,4.30
2023-03-28T06:42:30.629Z,4.21
2023-03-28T06:44:57.309Z,4.27
2023-03-28T06:47:24.007Z,4.29
2023-03-28T06:49:50.742Z,4.17
2023-03-28T06:52:17.533Z,3.98
2023-03-28T06:54:45.325Z,4.19
2023-03-28T06:57:13.452Z,4.33
2023-03-28T06:59:40.195Z,4.13
2023-03-28T07:02:07.019Z,4.42
2023-03-28T07:04:35.024Z,4.42
2023-03-28T07:07:01.994Z,4.39
2023-03-28T07:09:28.940Z,4.45
2023-03-28T07:11:55.780Z,4.53
2023-03-28T07:14:22.544Z,4.79
2023-03-28T07:16:49.368Z,4.57
2023-03-28T07:19:16.261Z,4.66
2023-03-28T07:21:43.280Z,4.64
2023-03-28T07:24:10.422Z,4.54
2023-03-28T07:26:37.095Z,4.68
2023-03-28T07:29:03.930Z,4.94
2023-03-28T07:31:31.145Z,5.02
2023-03-28T07:33:58.309Z,4.85
2023-03-28T07:36:27.137Z,5.09
2023-03-28T07:38:54.200Z,5.12
2023-03-28T07:41:22.740Z,5.18
2023-03-28T07:43:49.538Z,5.65
2023-03-28T07:46:16.518Z,6.01
2023-03-28T07:48:45.663Z,6.03
2023-03-28T07:51:14.832Z,5.98
2023-03-28T07:53:41.614Z,5.80
2023-03-28T07:56:10.817Z,5.96
2023-03-28T07:58:39.376Z,6.07
2023-03-28T08:01:12.123Z,5.96
2023-03-28T08:03:39.747Z,6.15
2023-03-28T08:06:20.068Z,6.02
2023-03-28T08:08:52.211Z,6.38
2023-03-28T08:11:18.951Z,6.03
2023-03-28T08:13:45.655Z,5.95
2023-03-28T08:16:12.345Z,6.00
2023-03-28T08:18:39.213Z,6.26
2023-03-28T08:21:06.273Z,6.45
2023-03-28T08:23:32.904Z,6.58
2023-03-28T08:26:06.405Z,6.59
2023-03-28T08:28:34.817Z,6.75
2023-03-28T08:31:03.092Z,6.46
2023-03-28T08:33:30.035Z,6.63
2023-03-28T08:35:57.178Z,6.36
2023-03-28T08:38:24.495Z,6.47
2023-03-28T08:41:29.838Z,6.33
2023-03-28T08:44:30.074Z,6.36
2023-03-28T08:47:05.951Z,6.40
2023-03-28T08:49:44.072Z,6.00
2023-03-28T08:52:16.546Z,6.25
2023-03-28T08:54:43.190Z,6.57
2023-03-28T08:57:17.890Z,6.49
2023-03-28T09:00:31.365Z,6.46
2023-03-28T09:02:59.114Z,6.55
2023-03-28T09:05:44.494Z,6.54
2023-03-28T09:08:23.320Z,6.67
2023-03-28T09:11:02.098Z,6.38
2023-03-28T09:14:16.224Z,6.31
2023-03-28T09:16:57.408Z,6.29
2023-03-28T09:19:47.877Z,6.47
2023-03-28T09:22:33.257Z,6.51
2023-03-28T09:25:21.718Z,6.36
2023-03-28T09:28:29.077Z,6.52
2023-03-28T09:30:58.939Z,6.38
2023-03-28T09:33:30.531Z,6.38
2023-03-28T09:35:57.737Z,6.73
2023-03-28T09:38:33.530Z,6.66
2023-03-28T09:41:05.696Z,6.84
2023-03-28T09:43:39.638Z,6.77
2023-03-28T09:46:18.792Z,6.98
2023-03-28T09:48:45.807Z,6.83
2023-03-28T09:51:18.308Z,6.80
2023-03-28T09:53:45.022Z,6.87
2023-03-28T09:56:33.285Z,7.03
2023-03-28T09:59:02.662Z,7.07
2023-03-28T10:01:46.421Z,7.17
2023-03-28T10:04:39.438Z,7.07
2023-03-28T10:07:09.204Z,7.13
2023-03-28T10:09:47.878Z,7.07
2023-03-28T10:12:42.038Z,7.11
2023-03-28T10:15:43.456Z,7.15
2023-03-28T10:18:19.627Z,6.75
2023-03-28T10:20:48.964Z,7.09
2023-03-28T10:23:16.204Z,6.94
2023-03-28T10:25:46.236Z,7.16
2023-03-28T10:28:21.087Z,7.01
2023-03-28T10:30:57.799Z,7.23
2023-03-28T10:33:30.948Z,7.21
2023-03-28T10:36:11.040Z,7.33
2023-03-28T10:38:48.849Z,7.52
2023-03-28T10:41:25.871Z,7.37
2023-03-28T10:43:53.976Z,7.34
2023-03-28T10:46:22.125Z,6.92
2023-03-28T10:49:01.408Z,7.32
2023-03-28T10:51:31.458Z,7.52
2023-03-28T10:54:06.853Z,7.61
2023-03-28T10:56:57.756Z,7.66
2023-03-28T10:59:40.701Z,7.63
2023-03-28T11:02:07.441Z,7.66
2023-03-28T11:04:57.937Z,7.50
2023-03-28T11:08:01.814Z,7.54
2023-03-28T11:10:41.846Z,7.67
2023-03-28T11:13:23.660Z,7.81
2023-03-28T11:15:59.507Z,7.84
2023-03-28T11:18:53.503Z,7.59
2023-03-28T11:21:27.022Z,7.56
2023-03-28T11:23:56.647Z,7.79
2023-03-28T11:26:32.428Z,7.76
2023-03-28T11:29:08.515Z,8.01
2023-03-28T11:31:51.375Z,7.85
2023-03-28T11:34:21.929Z,8.14
2023-03-28T11:37:13.571Z,8.27
2023-03-28T11:39:54.473Z,8.07
2023-03-28T11:42:27.449Z,7.42
2023-03-28T11:45:02.713Z,7.47
2023-03-28T11:47:42.753Z,7.60
2023-03-28T11:50:18.944Z,7.65
2023-03-28T11:52:56.958Z,7.67
2023-03-28T11:55:32.934Z,7.23
2023-03-28T11:58:16.077Z,7.28
2023-03-28T12:01:11.424Z,7.75
2023-03-28T12:03:38.972Z,7.88
2023-03-28T12:06:27.107Z,7.30
2023-03-28T12:09:02.899Z,7.49
2023-03-28T12:11:52.879Z,7.58
2023-03-28T12:14:34.077Z,7.70
2023-03-28T12:17:11.207Z,7.69
2023-03-28T12:19:40.399Z,7.40
2023-03-28T12:22:21.384Z,7.58
2023-03-28T12:25:09.165Z,7.78
2023-03-28T12:28:15.726Z,7.67
2023-03-28T12:30:59.098Z,7.57
2023-03-28T12:33:50.719Z,8.05
2023-03-28T12:36:34.224Z,8.06
2023-03-28T12:39:04.383Z,8.22
2023-03-28T12:41:37.696Z,8.19
2023-03-28T12:44:11.066Z,8.09
2023-03-28T12:46:46.231Z,8.24
2023-03-28T12:49:42.297Z,8.34
2023-03-28T12:52:16.141Z,8.50
2023-03-28T12:55:08.115Z,8.53
2023-03-28T12:57:46.012Z,8.71
2023-03-28T13:00:31.712Z,8.76
2023-03-28T13:03:07.149Z,8.74
2023-03-28T13:05:55.866Z,9.03
2023-03-28T13:08:35.752Z,8.88
2023-03-28T13:11:17.072Z,8.68
2023-03-28T13:13:59.275Z,8.67
2023-03-28T13:16:48.229Z,8.45
2023-03-28T13:19:18.606Z,8.17
2023-03-28T13:21:46.467Z,8.54
2023-03-28T13:24:25.632Z,8.61
2023-03-28T13:27:14.218Z,8.51
2023-03-28T13:29:45.455Z,8.36
2023-03-28T13:32:19.086Z,8.47
2023-03-28T13:34:52.547Z,8.28
2023-03-28T13:37:41.906Z,8.68
2023-03-28T13:40:44.191Z,8.68
2023-03-28T13:43:26.546Z,8.70
2023-03-28T13:45:58.429Z,8.55
2023-03-28T13:48:32.668Z,8.16
2023-03-28T13:51:04.743Z,8.17
2023-03-28T13:53:46.534Z,8.09
2023-03-28T13:56:19.034Z,8.46
2023-03-28T13:58:49.016Z,8.20
2023-03-28T14:01:18.502Z,7.88
2023-03-28T14:03:48.612Z,7.87
2023-03-28T14:06:20.820Z,7.86
2023-03-28T14:08:51.882Z,8.09
2023-03-28T14:11:23.952Z,7.91
2023-03-28T14:13:59.558Z,7.72
2023-03-28T14:16:26.496Z,7.77
2023-03-28T14:18:53.378Z,7.97
2023-03-28T14:21:24.202Z,8.05
2023-03-28T14:23:59.953Z,7.98
2023-03-28T14:26:30.139Z,8.08
2023-03-28T14:29:07.223Z,8.25
2023-03-28T14:31:40.774Z,8.43
2023-03-28T14:34:16.381Z,8.31
2023-03-28T14:37:06.475Z,8.68
2023-03-28T14:39:36.669Z,8.43
2023-03-28T14:42:06.663Z,8.63
2023-03-28T14:45:03.375Z,8.39
2023-03-28T14:47:33.423Z,8.32
2023-03-28T14:50:01.512Z,8.31
2023-03-28T14:52:30.908Z,8.65
2023-03-28T14:54:58.804Z,8.27
2023-03-28T14:57:26.521Z,8.53
2023-03-28T14:59:56.454Z,8.58
2023-03-28T15:02:28.689Z,8.79
2023-03-28T15:04:58.590Z,8.63
2023-03-28T15:07:28.446Z,8.70
2023-03-28T15:10:11.325Z,8.64
2023-03-28T15:12:46.729Z,8.80
2023-03-28T15:15:38.386Z,8.71
2023-03-28T15:18:11.323Z,8.60
2023-03-28T15:20:39.324Z,8.32
2023-03-28T15:23:13.708Z,8.49
2023-03-28T15:25:43.832Z,8.69
2023-03-28T15:28:16.714Z,8.51
2023-03-28T15:30:45.649Z,8.48
2023-03-28T15:33:24.800Z,8.68
2023-03-28T15:36:06.019Z,8.58
2023-03-28T15:38:38.527Z,8.59
2023-03-28T15:41:19.409Z,8.69
2023-03-28T15:43:55.786Z,8.45
2023-03-28T15:46:31.505Z,8.36
2023-03-28T15:49:00.462Z,8.63
2023-03-28T15:51:27.844Z,8.25
2023-03-28T15:53:55.803Z,8.22
2023-03-28T15:56:24.975Z,8.35
2023-03-28T15:58:52.764Z,8.26
2023-03-28T16:01:23.955Z,8.44
2023-03-28T16:03:52.458Z,8.24
2023-03-28T16:06:31.828Z,8.49
2023-03-28T16:09:17.699Z,8.36
2023-03-28T16:11:46.176Z,8.17
2023-03-28T16:14:18.535Z,8.03
2023-03-28T16:16:45.878Z,8.06
2023-03-28T16:19:25.983Z,8.31
2023-03-28T16:21:52.972Z,8.32
2023-03-28T16:24:20.386Z,8.11
2023-03-28T16:26:48.312Z,8.17
2023-03-28T16:29:15.132Z,8.09
2023-03-28T16:31:42.059Z,7.96
2023-03-28T16:34:10.167Z,7.80
2023-03-28T16:36:38.093Z,8.15
2023-03-28T16:39:08.530Z,8.14
2023-03-28T16:41:35.853Z,8.12
2023-03-28T16:44:02.858Z,7.67
2023-03-28T16:46:29.674Z,7.71
2023-03-28T16:48:56.444Z,7.55
2023-03-28T16:51:23.322Z,7.96
2023-03-28T16:53:50.065Z,7.78
2023-03-28T16:56:18.013Z,8.15
2023-03-28T16:58:45.088Z,7.75
2023-03-28T17:01:19.210Z,7.97
2023-03-28T17:03:47.109Z,7.76
2023-03-28T17:06:14.937Z,7.88
2023-03-28T17:08:41.867Z,7.69
2023-03-28T17:11:11.386Z,7.92
2023-03-28T17:13:39.705Z,7.97
2023-03-28T17:16:07.972Z,7.88
2023-03-28T17:18:35.760Z,7.97
2023-03-28T17:21:13.283Z,7.68
2023-03-28T17:23:41.434Z,8.06
2023-03-28T17:26:10.211Z,8.04
2023-03-28T17:28:42.165Z,7.85
2023-03-28T17:31:18.697Z,7.82
2023-03-28T17:33:47.527Z,8.01
2023-03-28T17:36:19.677Z,8.12
2023-03-28T17:38:49.039Z,8.11
2023-03-28T17:41:16.475Z,7.57
2023-03-28T17:43:43.834Z,7.87
2023-03-28T17:46:12.128Z,8.10
2023-03-28T17:48:40.811Z,8.02
2023-03-28T17:51:10.265Z,7.68
2023-03-28T17:53:39.582Z,7.54
2023-03-28T17:56:07.262Z,7.56
2023-03-28T17:58:34.168Z,7.35
2023-03-28T18:01:00.920Z,7.59
2023-03-28T18:03:28.112Z,7.57
2023-03-28T18:06:00.075Z,7.30
2023-03-28T18:08:28.477Z,7.46
2023-03-28T18:10:59.931Z,7.35
2023-03-28T18:13:26.766Z,7.57
2023-03-28T18:15:53.700Z,7.66
2023-03-28T18:18:20.421Z,7.81
2023-03-28T18:20:47.315Z,7.69
2023-03-28T18:23:14.155Z,7.53
2023-03-28T18:25:41.453Z,7.62
2023-03-28T18:28:08.176Z,7.73
2023-03-28T18:30:35.182Z,7.63
2023-03-28T18:33:01.967Z,7.66
2023-03-28T18:35:28.788Z,7.56
2023-03-28T18:37:56.789Z,7.83
2023-03-28T18:40:23.747Z,7.97
2023-03-28T18:42:50.689Z,7.42
2023-03-28T18:45:17.522Z,7.68
2023-03-28T18:47:44.225Z,7.12
2023-03-28T18:50:11.445Z,7.41
2023-03-28T18:52:38.841Z,7.66
2023-03-28T18:55:06.326Z,7.60
2023-03-28T18:57:33.309Z,7.70
2023-03-28T19:00:00.048Z,7.62
2023-03-28T19:02:28.997Z,7.58
2023-03-28T19:04:56.272Z,7.33
2023-03-28T19:07:23.011Z,7.65
2023-03-28T19:09:50.247Z,7.41
2023-03-28T19:12:17.064Z,7.73
2023-03-28T19:14:43.812Z,7.50
2023-03-28T19:17:10.733Z,7.58
2023-03-28T19:19:37.658Z,7.52
2023-03-28T19:22:06.482Z,7.56
2023-03-28T19:24:33.840Z,7.56
2023-03-28T19:27:02.545Z,7.43
2023-03-28T19:29:32.115Z,7.48
2023-03-28T19:31:58.886Z,7.48
2023-03-28T19:34:25.615Z,7.27
2023-03-28T19:36:52.291Z,7.43
2023-03-28T19:39:22.052Z,7.59
2023-03-28T19:41:48.992Z,7.62
2023-03-28T19:44:15.744Z,7.72
2023-03-28T19:46:42.453Z,7.51
2023-03-28T19:49:11.461Z,7.64
2023-03-28T19:51:38.415Z,7.77
2023-03-28T19:54:05.254Z,7.77
2023-03-28T19:56:32.172Z,7.58
2023-03-28T19:58:58.957Z,7.65
2023-03-28T20:01:25.954Z,7.58
2023-03-28T20:03:53.437Z,7.88
2023-03-28T20:06:21.635Z,7.73
2023-03-28T20:08:48.975Z,7.73
2023-03-28T20:11:16.970Z,7.54
2023-03-28T20:13:44.458Z,7.60
2023-03-28T20:16:12.511Z,7.88
2023-03-28T20:18:39.479Z,7.92
2023-03-28T20:21:10.081Z,7.86
2023-03-28T20:23:37.374Z,7.45
2023-03-28T20:26:18.907Z,7.44
2023-03-28T20:28:57.026Z,7.66
2023-03-28T20:31:25.765Z,8.00
2023-03-28T20:33:54.085Z,7.89
2023-03-28T20:36:21.236Z,7.69
2023-03-28T20:38:48.158Z,7.45
2023-03-28T20:41:20.705Z,7.40
2023-03-28T20:43:47.750Z,7.48
2023-03-28T20:46:21.372Z,7.46
2023-03-28T20:48:52.899Z,7.43
2023-03-28T20:51:23.096Z,7.46
2023-03-28T20:53:53.638Z,7.61
2023-03-28T20:56:21.621Z,7.81
2023-03-28T20:58:50.785Z,7.53
2023-03-28T21:01:28.114Z,7.65
2023-03-28T21:03:57.491Z,7.88
2023-03-28T21:06:30.570Z,7.99
2023-03-28T21:08:59.908Z,7.94
2023-03-28T21:11:31.940Z,7.65
2023-03-28T21:14:00.036Z,7.86
2023-03-28T21:16:28.710Z,7.94
2023-03-28T21:18:56.216Z,7.66
2023-03-28T21:21:23.424Z,7.51
2023-03-28T21:23:50.233Z,7.45
2023-03-28T21:26:19.345Z,7.91
2023-03-28T21:28:47.154Z,7.80
2023-03-28T21:31:16.380Z,7.56
2023-03-28T21:33:43.394Z,7.50
2023-03-28T21:36:13.220Z,7.70
2023-03-28T21:38:40.580Z,7.63
2023-03-28T21:41:07.687Z,7.49
2023-03-28T21:43:35.130Z,7.75
2023-03-28T21:46:02.973Z,7.45
2023-03-28T21:48:30.324Z,7.37
2023-03-28T21:50:59.493Z,7.64
2023-03-28T21:53:32.745Z,7.70
2023-03-28T21:55:59.794Z,7.53
2023-03-28T21:58:30.381Z,7.66
2023-03-28T22:00:57.500Z,7.51
2023-03-28T22:03:25.084Z,7.51
2023-03-28T22:05:53.626Z,7.71
2023-03-28T22:08:22.297Z,7.57
2023-03-28T22:10:54.444Z,7.72
2023-03-28T22:13:21.405Z,7.41
2023-03-28T22:15:48.190Z,7.55
2023-03-28T22:18:15.842Z,7.31
2023-03-28T22:20:43.954Z,7.86
2023-03-28T22:23:11.197Z,7.75
2023-03-28T22:25:38.933Z,7.92
2023-03-28T22:28:09.382Z,7.80
2023-03-28T22:30:40.343Z,7.77
2023-03-28T22:33:09.857Z,7.71
2023-03-28T22:35:37.474Z,7.95
2023-03-28T22:38:05.192Z,7.86
2023-03-28T22:40:32.748Z,7.73
2023-03-28T22:42:59.716Z,7.65
2023-03-28T22:45:29.230Z,7.68
2023-03-28T22:48:00.328Z,7.61
2023-03-28T22:50:27.829Z,7.57
2023-03-28T22:52:54.728Z,7.57
2023-03-28T22:55:24.370Z,7.84
2023-03-28T22:57:52.498Z,7.85
2023-03-28T23:00:23.660Z,7.76
2023-03-28T23:02:52.114Z,7.89
2023-03-28T23:05:19.608Z,7.68
2023-03-28T23:07:46.671Z,7.63
2023-03-28T23:10:17.708Z,7.70
2023-03-28T23:12:45.063Z,7.60
2023-03-28T23:15:12.354Z,7.86
2023-03-28T23:17:39.806Z,7.55
2023-03-28T23:20:14.941Z,7.72
2023-03-28T23:22:44.340Z,7.85
2023-03-28T23:25:13.020Z,7.87
2023-03-28T23:27:40.063Z,7.83
2023-03-28T23:30:07.959Z,7.71
2023-03-28T23:32:35.217Z,7.86
2023-03-28T23:35:02.351Z,7.86
2023-03-28T23:37:29.230Z,7.57
2023-03-28T23:39:56.721Z,7.69
2023-03-28T23:42:24.896Z,7.77
2023-03-28T23:44:52.750Z,7.73
2023-03-28T23:47:23.347Z,7.73
2023-03-28T23:49:50.121Z,7.54
2023-03-28T23:52:17.078Z,7.59
2023-03-28T23:54:44.324Z,7.62
2023-03-28T23:57:11.807Z,7.80
2023-03-28T23:59:38.919Z,7.47
